Nearby METAR Reports

 

KBVO - Bartlesville, Oklahoma, USA
Distance from station: WNW 10mi, 16km
Updated: Sun, 18-Nov-2018 4:53am CST
Overcast
Overcast
 Wind from N
Wind: N 7 mph , 11 km/h
Temperature: 32°F , 0°C
Wind Chill: 25°F , -4°C
Dew Point: 28°F , -2°C
Humidity: 87%
Barometer: 30.31 inHg , 1026.4 hPa
Clouds: Overcast
Visibility: 9 miles , 14 km
Cloud details: Overcast 800 ft
2018/11/18 10:53 KBVO 181053Z AUTO 35006KT 9SM OVC008 00/M02 A3031 RMK AO2 SLP263 T00001017
KCFV - Coffeyville, Kansas, USA
Distance from station: NNE 31mi, 49km
Updated: Sun, 18-Nov-2018 4:52am CST
Mist, Overcast
Mist, Overcast
 Wind from N
Wind: N 15 mph , 24 km/h, Gust: 22 mph , 35 km/h
Temperature: 32°F , 0°C
Wind Chill: 22°F , -6°C
Dew Point: 30°F , -1°C
Humidity: 93%
Barometer: 30.28 inHg , 1025.4 hPa
Summary: Mist
Clouds: Overcast
Visibility: 6 miles , 10 km
Cloud details: Overcast 600 ft
2018/11/18 10:52 KCFV 181052Z AUTO 35013G19KT 6SM BR OVC006 00/M01 A3028 RMK AO2 SLP259 T00001011
 
KIDP - Independence, Kansas, USA
Distance from station: N 32mi, 52km
Updated: Sun, 18-Nov-2018 4:50am CST
Overcast
Overcast
 Wind from N
Wind: N 17 mph , 28 km/h
Temperature: 30°F , -1°C
Wind Chill: 18°F , -8°C
Dew Point: 28°F , -2°C
Humidity: 93%
Barometer: 30.30 inHg , 1026.1 hPa
Clouds: Overcast
Visibility: 10 miles , 16 km
Cloud details: Overcast 600 ft
2018/11/18 10:50 KIDP 181050Z AUTO 36015KT 10SM OVC006 M01/M02 A3030 RMK AO2 T10071018
KGCM - Claremore, Oklahoma, USA
Distance from station: SE 35mi, 56km
Updated: Sun, 18-Nov-2018 4:55am CST
Mist, Overcast
Mist, Overcast
 Wind from N
Wind: N 7 mph , 11 km/h
Temperature: 36°F , 2°C
Wind Chill: 30°F , -1°C
Dew Point: 34°F , 1°C
Humidity: 93%
Barometer: 30.25 inHg , 1024.4 hPa
Summary: Mist
Clouds: Overcast
Visibility: 4 miles , 6 km
Cloud details: Overcast 500 ft
2018/11/18 10:55 KGCM 181055Z AUTO 35006KT 4SM BR OVC005 02/01 A3025 RMK AO2 TSNO
 
KTUL - Tulsa, Oklahoma, USA
Distance from station: S 35mi, 56km
Updated: Sun, 18-Nov-2018 4:53am CST
Mist, Overcast
Mist, Overcast
 Wind from NNW
Wind: NNW 13 mph , 20 km/h
Temperature: 36°F , 2°C
Wind Chill: 27°F , -3°C
Dew Point: 34°F , 1°C
Humidity: 93%
Barometer: 30.25 inHg , 1024.4 hPa
Summary: Mist
Clouds: Overcast
Visibility: 6 miles , 10 km
Cloud details: Overcast 500 ft
2018/11/18 10:53 KTUL 181053Z 34011KT 6SM BR OVC005 02/01 A3025 RMK AO2 SLP244 T00220011
KRVS - Tulsa, Oklahoma, USA
Distance from station: S 46mi, 74km
Updated: Sun, 18-Nov-2018 4:53am CST
Mist, Overcast
Mist, Overcast
 Wind from N
Wind: N 13 mph , 20 km/h, Gust: 18 mph , 30 km/h
Temperature: 36°F , 2°C
Wind Chill: 27°F , -3°C
Dew Point: 34°F , 1°C
Humidity: 93%
Barometer: 30.26 inHg , 1024.7 hPa
Summary: Mist
Clouds: Overcast
Visibility: 4 miles , 6 km
Cloud details: Overcast 600 ft
2018/11/18 10:53 KRVS 181053Z AUTO 01011G16KT 4SM BR OVC006 02/01 A3026 RMK AO2 RAB02E11B27E33 SLP254 P0000 T00220006
 
KPPF - Parsons, Kansas, USA
Distance from station: NNE 48mi, 76km
Updated: Sun, 18-Nov-2018 4:52am CST
Mist, Overcast
Mist, Overcast
 Wind from N
Wind: N 7 mph , 11 km/h, Gust: 18 mph , 30 km/h
Temperature: 30°F , -1°C
Wind Chill: 23°F , -5°C
Dew Point: 30°F , -1°C
Humidity: 100%
Barometer: 30.30 inHg , 1026.1 hPa
Summary: Mist
Clouds: Overcast
Visibility: 3 miles , 5 km
Cloud details: Overcast 400 ft
2018/11/18 10:52 KPPF 181052Z AUTO 01006G16KT 3SM BR OVC004 M01/M01 A3030 RMK AO2 SLP263 T10061011
KGMJ - Grove, Oklahoma, USA
Distance from station: E 63mi, 101km
Updated: Sun, 18-Nov-2018 4:55am CST
Overcast
Overcast
 Wind from calm
Wind: Calm
Temperature: 41°F , 5°C
Dew Point: 36°F , 2°C
Humidity: 81%
Barometer: 30.23 inHg , 1023.7 hPa
Clouds: Overcast
Visibility: 7 miles , 11 km
Cloud details: Overcast 800 ft
2018/11/18 10:55 KGMJ 181055Z AUTO 00000KT 7SM OVC008 05/02 A3023 RMK AO2
 
KPNC - Ponca City, Oklahoma, USA
Distance from station: W 69mi, 111km
Updated: Sun, 18-Nov-2018 4:53am CST
Mist, Overcast
Mist, Overcast
 Wind from N
Wind: N 16 mph , 26 km/h
Temperature: 28°F , -2°C
Wind Chill: 16°F , -9°C
Dew Point: 25°F , -4°C
Humidity: 86%
Barometer: 30.32 inHg , 1026.8 hPa
Summary: Mist
Clouds: Overcast
Visibility: 6 miles , 10 km
Cloud details: Overcast 600 ft
2018/11/18 10:53 KPNC 181053Z AUTO 01014KT 6SM BR OVC006 M02/M04 A3032 RMK AO2 SLP272 I1001 T10171039
KCNU - Chanute, Kansas, USA
Distance from station: NNE 69mi, 112km
Updated: Sun, 18-Nov-2018 4:52am CST
Mist, Overcast
Mist, Overcast
 Wind from N
Wind: N 13 mph , 20 km/h, Gust: 22 mph , 35 km/h
Temperature: 28°F , -2°C
Wind Chill: 17°F , -8°C
Dew Point: 28°F , -2°C
Humidity: 100%
Barometer: 30.30 inHg , 1026.1 hPa
Summary: Mist
Clouds: Overcast
Visibility: 6 miles , 10 km
Cloud details: Overcast 500 ft
2018/11/18 10:52 KCNU 181052Z AUTO 36011G19KT 6SM BR OVC005 M02/M02 A3030 RMK AO2 SLP266 T10171022